createdAt,value
2018-07-30T00:00:37.993Z,21.30
2018-07-30T00:03:20.527Z,22.13
2018-07-30T00:06:02.280Z,19.93
2018-07-30T00:08:44.759Z,19.73
2018-07-30T00:11:26.969Z,18.70
2018-07-30T00:14:10.712Z,18.10
2018-07-30T00:16:53.176Z,18.20
2018-07-30T00:19:35.241Z,18.13
2018-07-30T00:22:17.420Z,18.07
2018-07-30T00:24:59.511Z,17.93
2018-07-30T00:27:41.089Z,19.57
2018-07-30T00:30:45.862Z,18.23
2018-07-30T00:33:27.376Z,20.43
2018-07-30T00:36:08.737Z,18.53
2018-07-30T00:38:52.416Z,21.93
2018-07-30T00:41:33.800Z,22.27
2018-07-30T00:44:19.568Z,20.07
2018-07-30T00:47:01.148Z,18.90
2018-07-30T00:49:42.739Z,18.87
2018-07-30T00:52:26.648Z,20.37
2018-07-30T00:55:08.951Z,20.67
2018-07-30T00:57:51.564Z,19.43
2018-07-30T01:00:33.079Z,20.60
2018-07-30T01:03:15.386Z,20.77
2018-07-30T01:05:57.045Z,20.33
2018-07-30T01:08:39.516Z,21.00
2018-07-30T01:11:22.360Z,22.17
2018-07-30T01:14:03.734Z,21.87
2018-07-30T01:16:46.003Z,21.57
2018-07-30T01:19:31.196Z,21.80
2018-07-30T01:22:13.647Z,17.03
2018-07-30T01:24:55.718Z,16.13
2018-07-30T01:27:37.370Z,17.53
2018-07-30T01:30:19.593Z,17.17
2018-07-30T01:33:01.172Z,19.23
2018-07-30T01:35:42.622Z,17.20
2018-07-30T01:38:24.627Z,16.40
2018-07-30T01:41:06.072Z,14.60
2018-07-30T01:43:47.615Z,14.90
2018-07-30T01:46:29.220Z,15.97
2018-07-30T01:49:10.605Z,14.23
2018-07-30T01:51:53.252Z,14.97
2018-07-30T01:54:35.023Z,15.90
2018-07-30T01:57:17.552Z,16.00
2018-07-30T02:03:28.504Z,14.27
2018-07-30T02:06:09.848Z,15.97
2018-07-30T02:08:52.353Z,15.43
2018-07-30T02:11:34.608Z,15.20
2018-07-30T02:14:16.105Z,16.00
2018-07-30T02:16:57.537Z,14.97
2018-07-30T02:19:39.486Z,15.53
2018-07-30T02:22:26.757Z,15.00
2018-07-30T02:25:15.172Z,16.17
2018-07-30T02:27:58.516Z,19.73
2018-07-30T02:30:40.357Z,17.10
2018-07-30T02:33:22.209Z,16.93
2018-07-30T02:36:04.150Z,16.77
2018-07-30T02:38:45.730Z,16.03
2018-07-30T02:41:27.667Z,17.93
2018-07-30T02:44:09.253Z,16.13
2018-07-30T02:46:50.835Z,17.33
2018-07-30T02:49:33.982Z,18.53
2018-07-30T02:52:15.526Z,18.20
2018-07-30T02:54:57.652Z,16.73
2018-07-30T02:57:39.416Z,17.73
2018-07-30T03:00:20.668Z,17.17
2018-07-30T03:03:03.339Z,15.80
2018-07-30T03:05:44.836Z,15.37
2018-07-30T03:08:28.040Z,15.47
2018-07-30T03:11:09.364Z,16.30
2018-07-30T03:13:50.801Z,16.90
2018-07-30T03:16:32.335Z,17.73
2018-07-30T03:19:13.739Z,15.60
2018-07-30T03:21:55.796Z,14.13
2018-07-30T03:24:37.259Z,15.73
2018-07-30T03:27:18.609Z,15.33
2018-07-30T03:30:00.612Z,15.60
2018-07-30T03:32:42.670Z,17.77
2018-07-30T03:35:26.396Z,15.87
2018-07-30T03:38:10.478Z,16.43
2018-07-30T03:40:53.153Z,16.03
2018-07-30T03:43:34.469Z,15.17
2018-07-30T03:46:15.831Z,14.63
2018-07-30T03:48:57.495Z,14.87
2018-07-30T03:51:38.896Z,14.93
2018-07-30T03:54:20.625Z,15.57
2018-07-30T03:57:02.126Z,15.07
2018-07-30T03:59:43.668Z,16.40
2018-07-30T04:02:25.965Z,13.77
2018-07-30T04:05:07.534Z,11.17
2018-07-30T04:07:48.940Z,13.83
2018-07-30T04:10:30.551Z,12.00
2018-07-30T04:13:12.121Z,13.37
2018-07-30T04:15:54.766Z,12.43
2018-07-30T04:18:36.145Z,14.33
2018-07-30T04:21:19.745Z,14.70
2018-07-30T04:24:01.775Z,14.30
2018-07-30T04:26:44.123Z,16.90
2018-07-30T04:29:26.704Z,14.93
2018-07-30T04:32:08.255Z,14.57
2018-07-30T04:34:50.431Z,15.93
2018-07-30T04:37:32.374Z,15.90
2018-07-30T04:40:13.733Z,14.37
2018-07-30T04:42:55.725Z,15.83
2018-07-30T04:45:37.043Z,20.23
2018-07-30T04:48:18.400Z,16.63
2018-07-30T04:51:00.834Z,17.20
2018-07-30T04:53:42.287Z,17.53
2018-07-30T04:56:25.981Z,18.87
2018-07-30T04:59:07.300Z,18.17
2018-07-30T05:01:48.610Z,19.27
2018-07-30T05:04:29.968Z,21.53
2018-07-30T05:07:12.352Z,18.80
2018-07-30T05:09:56.077Z,17.87
2018-07-30T05:12:37.951Z,20.23
2018-07-30T05:15:19.408Z,18.83
2018-07-30T05:18:01.726Z,23.30
2018-07-30T05:20:43.150Z,19.70
2018-07-30T05:23:25.786Z,19.00
2018-07-30T05:26:07.312Z,19.53
2018-07-30T05:28:49.299Z,18.60
2018-07-30T05:31:31.938Z,18.73
2018-07-30T05:34:13.468Z,20.10
2018-07-30T05:36:56.412Z,17.73
2018-07-30T05:39:37.766Z,18.63
2018-07-30T05:42:20.663Z,17.63
2018-07-30T05:45:02.212Z,18.13
2018-07-30T05:47:43.592Z,17.83
2018-07-30T05:50:26.087Z,19.63
2018-07-30T05:53:08.039Z,18.23
2018-07-30T05:55:49.564Z,18.53
2018-07-30T05:58:31.936Z,20.63
2018-07-30T06:01:13.320Z,19.70
2018-07-30T06:03:56.485Z,18.20
2018-07-30T06:06:37.857Z,16.40
2018-07-30T06:09:19.566Z,21.10
2018-07-30T06:12:02.147Z,19.27
2018-07-30T06:14:44.767Z,20.07
2018-07-30T06:17:27.484Z,20.27
2018-07-30T06:20:10.603Z,20.13
2018-07-30T06:22:53.187Z,18.07
2018-07-30T06:25:34.684Z,19.07
2018-07-30T06:28:16.271Z,24.13
2018-07-30T06:30:57.684Z,23.03
2018-07-30T06:33:39.049Z,23.20
2018-07-30T06:36:25.056Z,24.83
2018-07-30T06:39:09.296Z,25.43
2018-07-30T06:41:50.691Z,26.63
2018-07-30T06:44:33.078Z,25.47
2018-07-30T06:47:15.211Z,24.57
2018-07-30T06:49:57.246Z,22.60
2018-07-30T06:52:38.760Z,25.83
2018-07-30T06:55:20.089Z,22.50
2018-07-30T06:58:01.862Z,24.33
2018-07-30T07:00:43.401Z,28.57
2018-07-30T07:03:27.216Z,28.90
2018-07-30T07:06:09.904Z,31.70
2018-07-30T07:08:52.807Z,24.20
2018-07-30T07:11:53.714Z,24.23
2018-07-30T07:14:35.345Z,24.57
2018-07-30T07:17:16.737Z,25.47
2018-07-30T07:19:58.165Z,28.67
2018-07-30T07:22:43.156Z,29.47
2018-07-30T07:25:26.252Z,25.77
2018-07-30T07:28:07.962Z,33.30
2018-07-30T07:30:50.141Z,32.13
2018-07-30T07:33:32.487Z,29.13
2018-07-30T07:36:13.913Z,31.30
2018-07-30T07:38:56.525Z,30.10
2018-07-30T07:41:38.067Z,27.87
2018-07-30T07:44:25.060Z,24.77
2018-07-30T07:47:06.765Z,24.30
2018-07-30T07:49:48.511Z,22.60
2018-07-30T07:52:30.918Z,29.07
2018-07-30T07:55:12.328Z,19.40
2018-07-30T07:57:56.084Z,25.57
2018-07-30T08:00:38.107Z,22.40
2018-07-30T08:03:19.415Z,22.83
2018-07-30T08:06:01.987Z,24.53
2018-07-30T08:08:44.449Z,20.27
2018-07-30T08:11:26.913Z,17.63
2018-07-30T08:14:08.740Z,19.27
2018-07-30T08:16:50.534Z,16.70
2018-07-30T08:19:32.152Z,17.60
2018-07-30T08:22:13.567Z,16.63
2018-07-30T08:24:56.065Z,19.50
2018-07-30T08:27:37.605Z,17.43
2018-07-30T08:30:19.015Z,16.20
2018-07-30T08:33:00.719Z,14.03
2018-07-30T08:35:42.174Z,17.97
2018-07-30T08:38:25.002Z,14.30
2018-07-30T08:41:26.123Z,14.67
2018-07-30T08:44:07.615Z,17.30
2018-07-30T08:46:49.084Z,13.87
2018-07-30T08:49:30.425Z,17.23
2018-07-30T08:52:14.739Z,13.53
2018-07-30T08:54:57.714Z,14.43
2018-07-30T08:57:39.477Z,14.33
2018-07-30T09:00:22.162Z,16.20
2018-07-30T09:03:03.502Z,17.97
2018-07-30T09:05:44.846Z,14.17
2018-07-30T09:08:27.421Z,20.60
2018-07-30T09:11:08.871Z,15.30
2018-07-30T09:13:50.425Z,14.23
2018-07-30T09:16:32.201Z,11.87
2018-07-30T09:19:13.654Z,11.63
2018-07-30T09:21:55.986Z,15.47
2018-07-30T09:24:37.423Z,10.00
2018-07-30T09:27:19.846Z,13.20
2018-07-30T09:30:02.440Z,13.63
2018-07-30T09:32:43.818Z,13.57
2018-07-30T09:35:25.950Z,10.93
2018-07-30T09:38:07.381Z,11.87
2018-07-30T09:40:52.109Z,13.10
2018-07-30T09:43:33.493Z,11.80
2018-07-30T09:46:14.848Z,17.33
2018-07-30T09:48:57.404Z,12.07
2018-07-30T09:51:38.906Z,12.50
2018-07-30T09:54:20.360Z,11.63
2018-07-30T09:57:01.876Z,15.63
2018-07-30T09:59:43.460Z,16.73
2018-07-30T10:02:26.092Z,13.57
2018-07-30T10:05:07.494Z,14.90
2018-07-30T10:07:48.968Z,13.00
2018-07-30T10:10:30.348Z,13.10
2018-07-30T10:13:11.691Z,16.40
2018-07-30T10:15:53.891Z,14.63
2018-07-30T10:18:35.458Z,13.67
2018-07-30T10:21:16.995Z,15.37
2018-07-30T10:23:58.441Z,15.17
2018-07-30T10:26:39.861Z,16.30
2018-07-30T10:29:22.691Z,13.90
2018-07-30T10:32:05.489Z,12.97
2018-07-30T10:34:46.820Z,14.83
2018-07-30T10:37:28.189Z,14.13
2018-07-30T10:40:09.688Z,12.33
2018-07-30T10:42:52.370Z,14.73
2018-07-30T10:45:36.028Z,11.83
2018-07-30T10:48:17.894Z,14.23
2018-07-30T10:51:02.757Z,13.00
2018-07-30T10:53:45.130Z,14.00
2018-07-30T10:56:28.916Z,13.53
2018-07-30T10:59:10.283Z,13.50
2018-07-30T11:01:52.023Z,13.23
2018-07-30T11:04:33.468Z,14.73
2018-07-30T11:07:14.847Z,12.77
2018-07-30T11:09:57.347Z,12.00
2018-07-30T11:12:38.736Z,13.60
2018-07-30T11:15:20.613Z,15.00
2018-07-30T11:18:02.176Z,14.00
2018-07-30T11:20:44.021Z,13.63
2018-07-30T11:23:26.461Z,13.07
2018-07-30T11:26:07.924Z,12.67
2018-07-30T11:28:49.583Z,13.40
2018-07-30T11:31:32.541Z,14.43
2018-07-30T11:34:14.047Z,14.00
2018-07-30T11:36:55.911Z,13.87
2018-07-30T11:39:37.267Z,12.73
2018-07-30T11:42:18.574Z,14.23
2018-07-30T11:44:59.884Z,16.07
2018-07-30T11:47:41.212Z,13.57
2018-07-30T11:50:24.887Z,13.57
2018-07-30T11:53:07.218Z,12.97
2018-07-30T11:55:49.503Z,15.97
2018-07-30T11:58:31.876Z,13.17
2018-07-30T12:01:13.629Z,14.67
2018-07-30T12:03:56.128Z,14.27
2018-07-30T12:06:38.219Z,14.77
2018-07-30T12:09:19.771Z,13.03
2018-07-30T12:12:01.811Z,13.67
2018-07-30T12:14:43.301Z,13.53
2018-07-30T12:17:25.947Z,14.43
2018-07-30T12:20:07.781Z,13.20
2018-07-30T12:22:49.674Z,12.10
2018-07-30T12:25:31.733Z,11.40
2018-07-30T12:28:13.683Z,11.00
2018-07-30T12:30:56.093Z,11.10
2018-07-30T12:33:37.884Z,12.27
2018-07-30T12:36:19.487Z,14.37
2018-07-30T12:39:02.478Z,12.73
2018-07-30T12:41:44.352Z,10.23
2018-07-30T12:44:26.484Z,11.13
2018-07-30T12:47:08.666Z,10.87
2018-07-30T12:49:50.070Z,11.87
2018-07-30T12:52:31.928Z,11.57
2018-07-30T12:55:13.276Z,12.80
2018-07-30T12:57:56.002Z,12.73
2018-07-30T13:00:37.470Z,13.53
2018-07-30T13:03:18.978Z,12.63
2018-07-30T13:06:00.463Z,12.47
2018-07-30T13:08:44.609Z,13.47
2018-07-30T13:11:27.208Z,11.10
2018-07-30T13:14:08.789Z,12.73
2018-07-30T13:16:50.286Z,11.87
2018-07-30T13:19:31.734Z,12.40
2018-07-30T13:22:16.117Z,13.20
2018-07-30T13:24:57.954Z,12.03
2018-07-30T13:27:39.301Z,10.80
2018-07-30T13:30:21.995Z,13.07
2018-07-30T13:33:04.755Z,13.27
2018-07-30T13:35:46.276Z,15.00
2018-07-30T13:38:28.002Z,13.33
2018-07-30T13:41:09.756Z,12.70
2018-07-30T13:43:52.051Z,11.03
2018-07-30T13:46:33.372Z,11.70
2018-07-30T13:49:14.771Z,9.10
2018-07-30T13:51:57.095Z,10.90
2018-07-30T13:54:38.507Z,8.43
2018-07-30T13:57:19.801Z,11.07
2018-07-30T14:00:01.886Z,9.73
2018-07-30T14:02:43.318Z,10.00
2018-07-30T14:05:25.916Z,8.13
2018-07-30T14:08:07.016Z,10.43
2018-07-30T14:10:48.374Z,10.67
2018-07-30T14:13:29.809Z,7.07
2018-07-30T14:16:11.292Z,9.23
2018-07-30T14:18:53.670Z,7.00
2018-07-30T14:21:35.179Z,7.57
2018-07-30T14:24:17.096Z,8.80
2018-07-30T14:26:58.542Z,7.53
2018-07-30T14:29:40.072Z,9.43
2018-07-30T14:32:22.208Z,7.73
2018-07-30T14:35:05.303Z,9.17
2018-07-30T14:37:46.867Z,8.47
2018-07-30T14:40:28.445Z,9.10
2018-07-30T14:43:10.018Z,6.30
2018-07-30T14:45:52.075Z,6.07
2018-07-30T14:48:33.553Z,8.53
2018-07-30T14:51:15.207Z,7.60
2018-07-30T14:53:57.976Z,6.43
2018-07-30T14:56:39.433Z,6.17
2018-07-30T14:59:20.766Z,6.93
2018-07-30T15:02:02.093Z,7.07
2018-07-30T15:04:43.548Z,7.77
2018-07-30T15:07:25.703Z,11.50
2018-07-30T15:10:07.267Z,8.90
2018-07-30T15:12:49.452Z,7.23
2018-07-30T15:15:31.763Z,4.13
2018-07-30T15:18:13.146Z,7.30
2018-07-30T15:20:55.815Z,6.13
2018-07-30T15:23:37.331Z,15.60
2018-07-30T15:26:18.638Z,10.90
2018-07-30T15:29:00.270Z,5.60
2018-07-30T15:31:41.719Z,4.93
2018-07-30T15:34:23.864Z,6.33
2018-07-30T15:37:05.598Z,5.47
2018-07-30T15:39:47.111Z,5.43
2018-07-30T15:42:29.281Z,3.80
2018-07-30T15:45:10.699Z,7.90
2018-07-30T15:47:53.244Z,6.47
2018-07-30T15:50:34.951Z,4.53
2018-07-30T15:53:16.476Z,5.83
2018-07-30T15:55:58.284Z,5.87
2018-07-30T15:58:39.662Z,5.30
2018-07-30T16:01:22.176Z,6.13
2018-07-30T16:04:03.695Z,6.90
2018-07-30T16:06:50.154Z,9.50
2018-07-30T16:09:31.943Z,5.97
2018-07-30T16:12:13.822Z,6.07
2018-07-30T16:15:01.156Z,6.23
2018-07-30T16:17:43.780Z,8.60
2018-07-30T16:20:26.471Z,4.60
2018-07-30T16:23:07.956Z,5.70
2018-07-30T16:25:49.600Z,6.53
2018-07-30T16:28:31.173Z,7.17
2018-07-30T16:31:13.408Z,6.27
2018-07-30T16:33:56.253Z,6.33
2018-07-30T16:36:38.153Z,5.60
2018-07-30T16:39:35.357Z,5.30
2018-07-30T16:42:20.442Z,6.20
2018-07-30T16:45:03.312Z,10.93
2018-07-30T16:47:46.061Z,8.17
2018-07-30T16:50:28.768Z,7.43
2018-07-30T16:53:12.804Z,12.63
2018-07-30T16:55:55.662Z,10.70
2018-07-30T16:58:41.875Z,8.43
2018-07-30T17:01:43.475Z,9.17
2018-07-30T17:04:30.522Z,9.30
2018-07-30T17:07:13.320Z,9.83
2018-07-30T17:09:57.195Z,7.43
2018-07-30T17:12:39.936Z,10.00
2018-07-30T17:15:21.740Z,10.23
2018-07-30T17:18:03.216Z,10.30
2018-07-30T17:20:44.959Z,7.53
2018-07-30T17:23:27.593Z,10.63
2018-07-30T17:26:09.562Z,9.47
2018-07-30T17:28:51.271Z,11.23
2018-07-30T17:31:33.889Z,11.40
2018-07-30T17:34:15.723Z,12.60
2018-07-30T17:36:58.315Z,12.27
2018-07-30T17:39:42.471Z,10.43
2018-07-30T17:42:25.697Z,11.73
2018-07-30T17:45:12.083Z,11.57
2018-07-30T17:47:56.266Z,11.77
2018-07-30T17:50:39.949Z,11.10
2018-07-30T17:53:23.196Z,12.57
2018-07-30T17:56:04.632Z,11.63
2018-07-30T17:58:46.703Z,13.20
2018-07-30T18:01:28.916Z,14.07
2018-07-30T18:04:10.580Z,13.53
2018-07-30T18:06:53.356Z,11.03
2018-07-30T18:09:41.608Z,10.97
2018-07-30T18:12:23.786Z,9.43
2018-07-30T18:15:07.903Z,13.27
2018-07-30T18:17:50.631Z,12.97
2018-07-30T18:20:41.344Z,12.53
2018-07-30T18:23:25.006Z,10.10
2018-07-30T18:26:07.863Z,11.17
2018-07-30T18:28:50.294Z,11.00
2018-07-30T18:31:31.870Z,12.03
2018-07-30T18:34:15.514Z,11.73
2018-07-30T18:37:02.406Z,21.17
2018-07-30T18:39:43.964Z,24.90
2018-07-30T18:42:26.860Z,20.20
2018-07-30T18:45:09.094Z,16.60
2018-07-30T18:47:51.148Z,14.20
2018-07-30T18:50:32.728Z,14.97
2018-07-30T18:53:18.369Z,12.23
2018-07-30T18:56:00.893Z,13.57
2018-07-30T18:58:42.676Z,10.33
2018-07-30T19:01:25.588Z,14.87
2018-07-30T19:04:08.104Z,11.47
2018-07-30T19:06:51.079Z,11.17
2018-07-30T19:09:32.605Z,15.30
2018-07-30T19:12:16.938Z,11.13
2018-07-30T19:14:59.440Z,11.87
2018-07-30T19:17:58.500Z,21.97
2018-07-30T19:20:39.892Z,17.90
2018-07-30T19:23:22.480Z,15.70
2018-07-30T19:26:04.124Z,17.50
2018-07-30T19:28:45.627Z,15.10
2018-07-30T19:31:27.644Z,25.87
2018-07-30T19:34:09.219Z,35.07
2018-07-30T19:36:51.380Z,34.77
2018-07-30T19:39:33.671Z,34.43
2018-07-30T19:42:15.177Z,34.70
2018-07-30T19:44:58.680Z,30.53
2018-07-30T19:47:40.437Z,26.87
2018-07-30T19:50:21.873Z,21.30
2018-07-30T19:53:04.766Z,22.47
2018-07-30T19:55:46.256Z,16.43
2018-07-30T19:58:28.526Z,18.13
2018-07-30T20:01:10.208Z,18.37
2018-07-30T20:03:51.723Z,21.00
2018-07-30T20:06:33.929Z,15.17
2018-07-30T20:09:17.468Z,15.40
2018-07-30T20:12:01.871Z,15.47
2018-07-30T20:14:43.579Z,14.53
2018-07-30T20:17:26.700Z,16.77
2018-07-30T20:20:14.253Z,19.73
2018-07-30T20:22:56.864Z,17.47
2018-07-30T20:25:38.859Z,16.27
2018-07-30T20:28:20.594Z,19.97
2018-07-30T20:31:02.506Z,21.60
2018-07-30T20:33:43.968Z,21.80
2018-07-30T20:36:26.760Z,24.10
2018-07-30T20:39:10.460Z,20.00
2018-07-30T20:41:53.968Z,22.70
2018-07-30T20:44:35.269Z,20.77
2018-07-30T20:47:17.139Z,17.70
2018-07-30T20:49:58.808Z,21.57
2018-07-30T20:52:40.016Z,20.87
2018-07-30T20:55:22.596Z,16.20
2018-07-30T20:58:04.229Z,19.47
2018-07-30T21:00:45.762Z,16.03
2018-07-30T21:03:29.618Z,21.90
2018-07-30T21:06:11.197Z,21.83
2018-07-30T21:08:52.535Z,17.90
2018-07-30T21:11:34.574Z,21.47
2018-07-30T21:14:16.546Z,18.30
2018-07-30T21:16:58.352Z,20.00
2018-07-30T21:19:46.704Z,20.83
2018-07-30T21:22:30.301Z,25.50
2018-07-30T21:25:12.708Z,21.87
2018-07-30T21:27:56.298Z,18.43
2018-07-30T21:30:47.180Z,19.40
2018-07-30T21:33:29.219Z,15.70
2018-07-30T21:36:10.819Z,20.57
2018-07-30T21:38:52.307Z,16.70
2018-07-30T21:41:33.936Z,19.33
2018-07-30T21:44:16.071Z,21.37
2018-07-30T21:46:59.084Z,19.83
2018-07-30T21:49:41.072Z,18.17
2018-07-30T21:52:27.736Z,16.63
2018-07-30T21:55:09.058Z,17.33
2018-07-30T21:57:50.404Z,18.03
2018-07-30T22:00:34.761Z,19.27
2018-07-30T22:03:16.132Z,22.23
2018-07-30T22:06:01.044Z,19.10
2018-07-30T22:08:43.489Z,17.93
2018-07-30T22:11:26.823Z,16.40
2018-07-30T22:14:08.665Z,15.27
2018-07-30T22:16:50.074Z,15.83
2018-07-30T22:19:31.441Z,18.13
2018-07-30T22:22:12.780Z,19.90
2018-07-30T22:24:54.992Z,21.43
2018-07-30T22:27:36.487Z,17.93
2018-07-30T22:30:17.973Z,17.33
2018-07-30T22:32:59.961Z,16.73
2018-07-30T22:35:45.048Z,17.83
2018-07-30T22:38:27.827Z,17.50
2018-07-30T22:41:10.047Z,19.83
2018-07-30T22:43:51.504Z,18.30
2018-07-30T22:46:33.928Z,19.00
2018-07-30T22:49:15.944Z,19.03
2018-07-30T22:51:58.452Z,21.53
2018-07-30T22:54:39.916Z,16.70
2018-07-30T22:57:22.056Z,18.23
2018-07-30T23:00:05.385Z,19.10
2018-07-30T23:02:47.507Z,20.27
2018-07-30T23:05:29.981Z,23.37
2018-07-30T23:08:11.997Z,17.50
2018-07-30T23:10:54.160Z,18.83
2018-07-30T23:13:35.736Z,21.40
2018-07-30T23:16:17.158Z,17.23
2018-07-30T23:18:59.654Z,22.13
2018-07-30T23:21:41.036Z,18.13
2018-07-30T23:24:22.820Z,20.10
2018-07-30T23:27:04.194Z,21.77
2018-07-30T23:29:45.579Z,24.03
2018-07-30T23:32:28.172Z,20.53
2018-07-30T23:35:09.642Z,22.37
2018-07-30T23:37:51.088Z,22.20
2018-07-30T23:40:32.388Z,28.13
2018-07-30T23:43:14.004Z,23.60
2018-07-30T23:45:56.971Z,26.17
2018-07-30T23:48:38.447Z,24.70
2018-07-30T23:51:19.885Z,21.37
2018-07-30T23:54:01.253Z,22.00
2018-07-30T23:56:42.611Z,21.67
2018-07-30T23:59:25.873Z,22.70
